SDG002 LICP-LICC
Flight info
| Callsign | SDG002 |
|---|---|
| Flight time | N/A |
| Altitude | 5500 |
| Route | MONREALE PORTELLADELLAGINESTRA PIANADEGLIALBANESI ENNA LAGODIPERGUSA LAGODIOGLIASTRO |
| Aircraft | P28/L-S/C |
Departure
| Time | 2026-05-06 08:43 |
|---|---|
| Airport | Palermo-Boccadifalco Airport (LICP) |
Arrival
| Time | N/A |
|---|---|
| Airport | Catania-Fontanarossa Airport (LICC) |
| Time | Latitude | Longitude | Altitude | Speed | Heading |
|---|---|---|---|---|---|
| 2026-05-06 08:14 | 38.11134 | 13.31202 | 360 ft | 0 kts | 85° |
| 2026-05-06 08:31 | 38.11135 | 13.31216 | 360 ft | 5 kts | 85° |
| 2026-05-06 08:32 | 38.11187 | 13.31270 | 350 ft | 15 kts | 32° |
| 2026-05-06 08:32 | 38.11312 | 13.31363 | 328 ft | 24 kts | 12° |
| 2026-05-06 08:32 | 38.11488 | 13.31347 | 311 ft | 26 kts | 354° |
| 2026-05-06 08:32 | 38.11674 | 13.31329 | 297 ft | 27 kts | 351° |
| 2026-05-06 08:33 | 38.11865 | 13.31291 | 280 ft | 28 kts | 348° |
| 2026-05-06 08:33 | 38.12035 | 13.31257 | 267 ft | 6 kts | 50° |
| 2026-05-06 08:33 | 38.12024 | 13.31274 | 268 ft | 0 kts | 173° |
| 2026-05-06 08:41 | 38.12009 | 13.31276 | 269 ft | 16 kts | 172° |
| 2026-05-06 08:42 | 38.11709 | 13.31322 | 293 ft | 68 kts | 173° |
| 2026-05-06 08:42 | 38.11172 | 13.31431 | 454 ft | 85 kts | 173° |
| 2026-05-06 08:42 | 38.10591 | 13.31464 | 652 ft | 90 kts | 200° |
| 2026-05-06 08:42 | 38.10005 | 13.31123 | 831 ft | 95 kts | 214° |
| 2026-05-06 08:43 | 38.09464 | 13.30629 | 973 ft | 98 kts | 222° |
| 2026-05-06 08:43 | 38.08954 | 13.30036 | 1107 ft | 99 kts | 227° |
| 2026-05-06 08:43 | 38.08478 | 13.29404 | 1227 ft | 101 kts | 230° |
| 2026-05-06 08:43 | 38.07897 | 13.28851 | 1390 ft | 111 kts | 206° |
| 2026-05-06 08:44 | 38.07151 | 13.28494 | 1574 ft | 116 kts | 202° |
| 2026-05-06 08:44 | 38.06388 | 13.28159 | 1750 ft | 118 kts | 201° |
| 2026-05-06 08:44 | 38.05598 | 13.27821 | 1944 ft | 120 kts | 201° |
| 2026-05-06 08:44 | 38.04805 | 13.27486 | 2121 ft | 120 kts | 201° |
| 2026-05-06 08:45 | 38.04026 | 13.27160 | 2344 ft | 117 kts | 201° |
| 2026-05-06 08:45 | 38.03271 | 13.26845 | 2649 ft | 111 kts | 200° |
| 2026-05-06 08:45 | 38.02561 | 13.26541 | 2947 ft | 107 kts | 198° |
| 2026-05-06 08:45 | 38.01852 | 13.26339 | 3244 ft | 103 kts | 189° |
| 2026-05-06 08:46 | 38.01161 | 13.26197 | 3538 ft | 100 kts | 189° |
| 2026-05-06 08:46 | 38.00483 | 13.26063 | 3834 ft | 97 kts | 188° |
| 2026-05-06 08:46 | 37.99831 | 13.25935 | 4125 ft | 95 kts | 188° |
| 2026-05-06 08:46 | 37.99191 | 13.25816 | 4412 ft | 92 kts | 185° |
| 2026-05-06 08:47 | 37.98632 | 13.26057 | 4709 ft | 89 kts | 139° |
| 2026-05-06 08:47 | 37.98361 | 13.26630 | 4976 ft | 85 kts | 112° |